sensor_id;sensor_type;location;lat;lon;timestamp;pressure;altitude;pressure_sealevel;temperature;humidity
31299;BME280;17927;52.350;13.402;2024-03-06T00:00:19;101613.66;;;6.42;47.42
31299;BME280;17927;52.350;13.402;2024-03-06T00:02:46;101610.97;;;6.42;47.31
31299;BME280;17927;52.350;13.402;2024-03-06T00:05:12;101613.66;;;6.42;47.44
31299;BME280;17927;52.350;13.402;2024-03-06T00:07:37;101619.19;;;6.39;47.55
31299;BME280;17927;52.350;13.402;2024-03-06T00:10:02;101610.31;;;6.38;47.31
31299;BME280;17927;52.350;13.402;2024-03-06T00:12:30;101619.41;;;6.36;47.27
31299;BME280;17927;52.350;13.402;2024-03-06T00:14:55;101626.78;;;6.32;47.20
31299;BME280;17927;52.350;13.402;2024-03-06T00:17:20;101623.25;;;6.32;47.51
31299;BME280;17927;52.350;13.402;2024-03-06T00:19:45;101631.28;;;6.32;47.55
31299;BME280;17927;52.350;13.402;2024-03-06T00:22:10;101629.66;;;6.29;47.54
31299;BME280;17927;52.350;13.402;2024-03-06T00:24:36;101634.16;;;6.29;47.53
31299;BME280;17927;52.350;13.402;2024-03-06T00:27:01;101638.75;;;6.27;47.55
31299;BME280;17927;52.350;13.402;2024-03-06T00:29:27;101643.25;;;6.26;47.57
31299;BME280;17927;52.350;13.402;2024-03-06T00:31:52;101646.13;;;6.23;47.63
31299;BME280;17927;52.350;13.402;2024-03-06T00:34:17;101647.38;;;6.17;47.44
31299;BME280;17927;52.350;13.402;2024-03-06T00:36:43;101648.59;;;6.12;47.42
31299;BME280;17927;52.350;13.402;2024-03-06T00:39:09;101650.78;;;6.05;47.70
31299;BME280;17927;52.350;13.402;2024-03-06T00:41:34;101657.09;;;6.04;47.63
31299;BME280;17927;52.350;13.402;2024-03-06T00:44:00;101661.78;;;6.00;47.78
31299;BME280;17927;52.350;13.402;2024-03-06T00:46:25;101664.63;;;5.97;47.68
31299;BME280;17927;52.350;13.402;2024-03-06T00:48:50;101665.56;;;5.96;47.72
31299;BME280;17927;52.350;13.402;2024-03-06T00:51:15;101668.34;;;5.94;47.61
31299;BME280;17927;52.350;13.402;2024-03-06T00:53:41;101679.16;;;5.93;47.77
31299;BME280;17927;52.350;13.402;2024-03-06T00:56:07;101666.69;;;5.92;47.82
31299;BME280;17927;52.350;13.402;2024-03-06T00:58:32;101668.53;;;5.91;47.79
31299;BME280;17927;52.350;13.402;2024-03-06T01:00:58;101676.66;;;5.90;47.97
31299;BME280;17927;52.350;13.402;2024-03-06T01:03:24;101677.59;;;5.89;47.94
31299;BME280;17927;52.350;13.402;2024-03-06T01:05:49;101683.84;;;5.89;48.05
31299;BME280;17927;52.350;13.402;2024-03-06T01:08:15;101683.91;;;5.88;48.01
31299;BME280;17927;52.350;13.402;2024-03-06T01:10:42;101683.16;;;5.86;47.85
31299;BME280;17927;52.350;13.402;2024-03-06T01:13:08;101686.88;;;5.83;47.94
31299;BME280;17927;52.350;13.402;2024-03-06T01:15:35;101689.84;;;5.78;48.04
31299;BME280;17927;52.350;13.402;2024-03-06T01:18:01;101690.00;;;5.75;48.09
31299;BME280;17927;52.350;13.402;2024-03-06T01:20:26;101685.69;;;5.73;48.27
31299;BME280;17927;52.350;13.402;2024-03-06T01:22:51;101692.84;;;5.72;48.21
31299;BME280;17927;52.350;13.402;2024-03-06T01:25:17;101692.97;;;5.71;48.21
31299;BME280;17927;52.350;13.402;2024-03-06T01:27:42;101692.06;;;5.70;48.32
31299;BME280;17927;52.350;13.402;2024-03-06T01:30:07;101694.75;;;5.70;48.54
31299;BME280;17927;52.350;13.402;2024-03-06T01:32:33;101694.84;;;5.69;48.33
31299;BME280;17927;52.350;13.402;2024-03-06T01:34:58;101694.84;;;5.69;48.53
31299;BME280;17927;52.350;13.402;2024-03-06T01:37:23;101699.38;;;5.68;48.35
31299;BME280;17927;52.350;13.402;2024-03-06T01:39:49;101694.06;;;5.67;48.67
31299;BME280;17927;52.350;13.402;2024-03-06T01:42:16;101697.81;;;5.64;48.61
31299;BME280;17927;52.350;13.402;2024-03-06T01:44:42;101699.81;;;5.60;48.42
31299;BME280;17927;52.350;13.402;2024-03-06T01:47:07;101704.47;;;5.57;48.51
31299;BME280;17927;52.350;13.402;2024-03-06T01:49:32;101702.94;;;5.53;48.34
31299;BME280;17927;52.350;13.402;2024-03-06T01:51:58;101702.22;;;5.49;48.28
31299;BME280;17927;52.350;13.402;2024-03-06T01:54:25;101708.63;;;5.46;48.56
31299;BME280;17927;52.350;13.402;2024-03-06T01:56:51;101706.09;;;5.43;48.48
31299;BME280;17927;52.350;13.402;2024-03-06T01:59:19;101701.63;;;5.44;48.40
31299;BME280;17927;52.350;13.402;2024-03-06T02:01:46;101708.72;;;5.45;48.75
31299;BME280;17927;52.350;13.402;2024-03-06T02:04:12;101698.84;;;5.45;48.70
31299;BME280;17927;52.350;13.402;2024-03-06T02:06:41;101708.72;;;5.45;48.86
31299;BME280;17927;52.350;13.402;2024-03-06T02:09:06;101709.56;;;5.45;48.95
31299;BME280;17927;52.350;13.402;2024-03-06T02:11:32;101708.72;;;5.45;48.89
31299;BME280;17927;52.350;13.402;2024-03-06T02:13:58;101701.53;;;5.45;48.70
31299;BME280;17927;52.350;13.402;2024-03-06T02:16:23;101700.75;;;5.43;48.87
31299;BME280;17927;52.350;13.402;2024-03-06T02:19:37;101714.16;;;5.43;49.09
31299;BME280;17927;52.350;13.402;2024-03-06T02:22:02;101710.94;;;5.37;48.83
31299;BME280;17927;52.350;13.402;2024-03-06T02:24:27;101711.84;;;5.37;48.83
31299;BME280;17927;52.350;13.402;2024-03-06T02:26:52;101714.56;;;5.36;49.09
31299;BME280;17927;52.350;13.402;2024-03-06T02:29:18;101714.66;;;5.34;49.02
31299;BME280;17927;52.350;13.402;2024-03-06T02:31:43;101714.84;;;5.31;48.98
31299;BME280;17927;52.350;13.402;2024-03-06T02:34:09;101715.88;;;5.28;48.68
31299;BME280;17927;52.350;13.402;2024-03-06T02:36:34;101719.50;;;5.27;49.11
31299;BME280;17927;52.350;13.402;2024-03-06T02:39:01;101716.13;;;5.24;49.06
31299;BME280;17927;52.350;13.402;2024-03-06T02:41:26;101718.88;;;5.22;48.78
31299;BME280;17927;52.350;13.402;2024-03-06T02:43:52;101719.84;;;5.21;48.97
31299;BME280;17927;52.350;13.402;2024-03-06T02:46:17;101719.16;;;5.17;48.65
31299;BME280;17927;52.350;13.402;2024-03-06T02:48:42;101714.91;;;5.13;48.85
31299;BME280;17927;52.350;13.402;2024-03-06T02:51:07;101718.63;;;5.11;49.06
31299;BME280;17927;52.350;13.402;2024-03-06T02:53:33;101721.38;;;5.09;48.89
31299;BME280;17927;52.350;13.402;2024-03-06T02:55:58;101718.69;;;5.09;48.95
31299;BME280;17927;52.350;13.402;2024-03-06T02:58:23;101718.78;;;5.08;49.09
31299;BME280;17927;52.350;13.402;2024-03-06T03:00:48;101715.16;;;5.09;48.98
31299;BME280;17927;52.350;13.402;2024-03-06T03:03:14;101718.78;;;5.08;49.02
31299;BME280;17927;52.350;13.402;2024-03-06T03:05:39;101711.69;;;5.07;49.23
31299;BME280;17927;52.350;13.402;2024-03-06T03:08:05;101723.34;;;5.06;49.17
31299;BME280;17927;52.350;13.402;2024-03-06T03:10:30;101721.63;;;5.05;49.50
31299;BME280;17927;52.350;13.402;2024-03-06T03:12:56;101728.81;;;5.04;49.10
31299;BME280;17927;52.350;13.402;2024-03-06T03:15:21;101726.13;;;5.04;49.16
31299;BME280;17927;52.350;13.402;2024-03-06T03:17:46;101733.38;;;5.02;49.02
31299;BME280;17927;52.350;13.402;2024-03-06T03:20:12;101738.63;;;5.03;49.13
31299;BME280;17927;52.350;13.402;2024-03-06T03:22:41;101747.56;;;5.04;49.44
31299;BME280;17927;52.350;13.402;2024-03-06T03:25:10;101745.72;;;5.05;49.26
31299;BME280;17927;52.350;13.402;2024-03-06T03:27:39;101751.09;;;5.05;49.48
31299;BME280;17927;52.350;13.402;2024-03-06T03:30:11;101748.41;;;5.05;49.46
31299;BME280;17927;52.350;13.402;2024-03-06T03:32:37;101752.91;;;5.04;49.37
31299;BME280;17927;52.350;13.402;2024-03-06T03:35:04;101758.28;;;5.04;49.66
31299;BME280;17927;52.350;13.402;2024-03-06T03:37:30;101760.00;;;5.05;49.66
31299;BME280;17927;52.350;13.402;2024-03-06T03:39:55;101758.28;;;5.04;49.89
31299;BME280;17927;52.350;13.402;2024-03-06T03:42:20;101761.00;;;5.02;49.63
31299;BME280;17927;52.350;13.402;2024-03-06T03:44:46;101759.13;;;5.05;49.75
31299;BME280;17927;52.350;13.402;2024-03-06T03:47:11;101761.91;;;5.03;49.74
31299;BME280;17927;52.350;13.402;2024-03-06T03:49:37;101763.63;;;5.04;49.66
31299;BME280;17927;52.350;13.402;2024-03-06T03:52:03;101773.47;;;5.03;49.88
31299;BME280;17927;52.350;13.402;2024-03-06T03:54:28;101767.25;;;5.03;49.96
31299;BME280;17927;52.350;13.402;2024-03-06T03:56:53;101770.88;;;5.02;49.92
31299;BME280;17927;52.350;13.402;2024-03-06T03:59:19;101764.63;;;5.01;50.16
31299;BME280;17927;52.350;13.402;2024-03-06T04:01:47;101774.50;;;5.01;50.05
31299;BME280;17927;52.350;13.402;2024-03-06T04:04:12;101766.47;;;5.01;50.00
31299;BME280;17927;52.350;13.402;2024-03-06T04:06:38;101767.31;;;5.01;50.08
31299;BME280;17927;52.350;13.402;2024-03-06T04:09:03;101777.97;;;5.03;50.25
31299;BME280;17927;52.350;13.402;2024-03-06T04:11:29;101772.59;;;5.03;50.43
31299;BME280;17927;52.350;13.402;2024-03-06T04:13:55;101771.72;;;5.02;50.17
31299;BME280;17927;52.350;13.402;2024-03-06T04:16:20;101777.97;;;5.03;50.26
31299;BME280;17927;52.350;13.402;2024-03-06T04:18:46;101777.97;;;5.03;50.50
31299;BME280;17927;52.350;13.402;2024-03-06T04:21:11;101780.69;;;5.01;50.52
31299;BME280;17927;52.350;13.402;2024-03-06T04:23:37;101777.19;;;5.01;50.53
31299;BME280;17927;52.350;13.402;2024-03-06T04:26:02;101780.69;;;5.01;50.27
31299;BME280;17927;52.350;13.402;2024-03-06T04:28:29;101773.63;;;5.00;50.49
31299;BME280;17927;52.350;13.402;2024-03-06T04:30:55;101779.91;;;4.99;50.55
31299;BME280;17927;52.350;13.402;2024-03-06T04:33:20;101786.22;;;4.98;50.45
31299;BME280;17927;52.350;13.402;2024-03-06T04:35:45;101786.41;;;4.95;50.50
31299;BME280;17927;52.350;13.402;2024-03-06T04:38:11;101782.00;;;4.94;50.57
31299;BME280;17927;52.350;13.402;2024-03-06T04:40:36;101781.09;;;4.94;50.66
31299;BME280;17927;52.350;13.402;2024-03-06T04:43:01;101777.59;;;4.93;50.64
31299;BME280;17927;52.350;13.402;2024-03-06T04:45:27;101789.16;;;4.94;50.77
31299;BME280;17927;52.350;13.402;2024-03-06T04:47:54;101791.03;;;4.92;50.86
31299;BME280;17927;52.350;13.402;2024-03-06T04:50:19;101793.72;;;4.92;50.63
31299;BME280;17927;52.350;13.402;2024-03-06T04:52:44;101788.44;;;4.90;50.90
31299;BME280;17927;52.350;13.402;2024-03-06T04:55:10;101792.97;;;4.90;50.85
31299;BME280;17927;52.350;13.402;2024-03-06T04:57:39;101789.41;;;4.89;50.92
31299;BME280;17927;52.350;13.402;2024-03-06T05:00:06;101794.75;;;4.89;51.03
31299;BME280;17927;52.350;13.402;2024-03-06T05:02:32;101800.19;;;4.87;50.82
31299;BME280;17927;52.350;13.402;2024-03-06T05:05:01;101807.44;;;4.85;51.05
31299;BME280;17927;52.350;13.402;2024-03-06T05:07:30;101808.28;;;4.86;51.20
31299;BME280;17927;52.350;13.402;2024-03-06T05:09:56;101810.13;;;4.85;51.05
31299;BME280;17927;52.350;13.402;2024-03-06T05:12:26;101798.53;;;4.85;50.99
31299;BME280;17927;52.350;13.402;2024-03-06T05:14:52;101805.72;;;4.84;51.08
31299;BME280;17927;52.350;13.402;2024-03-06T05:17:17;101812.00;;;4.83;51.04
31299;BME280;17927;52.350;13.402;2024-03-06T05:19:44;101815.53;;;4.84;51.11
31299;BME280;17927;52.350;13.402;2024-03-06T05:22:10;101815.63;;;4.82;51.01
31299;BME280;17927;52.350;13.402;2024-03-06T05:24:37;101821.06;;;4.81;51.18
31299;BME280;17927;52.350;13.402;2024-03-06T05:27:02;101831.69;;;4.82;51.37
31299;BME280;17927;52.350;13.402;2024-03-06T05:29:27;101830.91;;;4.80;51.51
31299;BME280;17927;52.350;13.402;2024-03-06T05:31:53;101830.06;;;4.80;51.17
31299;BME280;17927;52.350;13.402;2024-03-06T05:34:18;101837.19;;;4.79;51.11
31299;BME280;17927;52.350;13.402;2024-03-06T05:36:43;101843.34;;;4.81;51.34
31299;BME280;17927;52.350;13.402;2024-03-06T05:39:08;101845.94;;;4.83;51.23
31299;BME280;17927;52.350;13.402;2024-03-06T05:41:38;101850.28;;;4.85;51.33
31299;BME280;17927;52.350;13.402;2024-03-06T05:44:04;101848.41;;;4.87;51.35
31299;BME280;17927;52.350;13.402;2024-03-06T05:46:29;101847.47;;;4.88;51.33
31299;BME280;17927;52.350;13.402;2024-03-06T05:48:54;101851.88;;;4.90;51.39
31299;BME280;17927;52.350;13.402;2024-03-06T05:51:19;101857.22;;;4.90;51.28
31299;BME280;17927;52.350;13.402;2024-03-06T05:53:45;101860.66;;;4.92;51.45
31299;BME280;17927;52.350;13.402;2024-03-06T05:56:10;101861.44;;;4.94;51.51
31299;BME280;17927;52.350;13.402;2024-03-06T05:58:35;101878.31;;;4.96;51.30
31299;BME280;17927;52.350;13.402;2024-03-06T06:01:01;101873.84;;;4.96;51.51
31299;BME280;17927;52.350;13.402;2024-03-06T06:03:27;101874.69;;;4.97;51.58
31299;BME280;17927;52.350;13.402;2024-03-06T06:05:53;101881.63;;;5.01;51.60
31299;BME280;17927;52.350;13.402;2024-03-06T06:08:19;101871.78;;;5.01;51.71
31299;BME280;17927;52.350;13.402;2024-03-06T06:10:44;101882.41;;;5.03;51.62
31299;BME280;17927;52.350;13.402;2024-03-06T06:13:09;101886.75;;;5.06;51.70
31299;BME280;17927;52.350;13.402;2024-03-06T06:15:34;101880.44;;;5.07;51.74
31299;BME280;17927;52.350;13.402;2024-03-06T06:17:59;101886.34;;;5.13;51.95
31299;BME280;17927;52.350;13.402;2024-03-06T06:20:25;101886.19;;;5.16;51.94
31299;BME280;17927;52.350;13.402;2024-03-06T06:22:51;101888.63;;;5.21;51.91
31299;BME280;17927;52.350;13.402;2024-03-06T06:25:16;101891.00;;;5.27;51.91
31299;BME280;17927;52.350;13.402;2024-03-06T06:27:41;101888.91;;;5.32;51.74
31299;BME280;17927;52.350;13.402;2024-03-06T06:30:07;101891.38;;;5.37;51.93
31299;BME280;17927;52.350;13.402;2024-03-06T06:32:36;101902.63;;;5.44;52.04
31299;BME280;17927;52.350;13.402;2024-03-06T06:35:01;101909.47;;;5.49;52.24
31299;BME280;17927;52.350;13.402;2024-03-06T06:37:27;101907.50;;;5.53;52.02
31299;BME280;17927;52.350;13.402;2024-03-06T06:39:52;101917.97;;;5.58;52.23
31299;BME280;17927;52.350;13.402;2024-03-06T06:42:17;101907.94;;;5.61;52.07
31299;BME280;17927;52.350;13.402;2024-03-06T06:44:42;101920.25;;;5.66;52.26
31299;BME280;17927;52.350;13.402;2024-03-06T06:47:08;101922.75;;;5.69;52.07
31299;BME280;17927;52.350;13.402;2024-03-06T06:49:33;101924.41;;;5.71;52.08
31299;BME280;17927;52.350;13.402;2024-03-06T06:51:59;101925.19;;;5.73;52.30
31299;BME280;17927;52.350;13.402;2024-03-06T06:54:24;101921.50;;;5.76;52.19
31299;BME280;17927;52.350;13.402;2024-03-06T06:56:49;101932.03;;;5.79;52.09
31299;BME280;17927;52.350;13.402;2024-03-06T06:59:14;101936.38;;;5.82;52.49
31299;BME280;17927;52.350;13.402;2024-03-06T07:01:40;101933.59;;;5.83;52.57
31299;BME280;17927;52.350;13.402;2024-03-06T07:04:08;101946.06;;;5.84;52.45
31299;BME280;17927;52.350;13.402;2024-03-06T07:06:33;101938.81;;;5.86;52.45
31299;BME280;17927;52.350;13.402;2024-03-06T07:08:59;101935.19;;;5.87;52.44
31299;BME280;17927;52.350;13.402;2024-03-06T07:11:24;101944.88;;;5.90;52.74
31299;BME280;17927;52.350;13.402;2024-03-06T07:13:49;101950.16;;;5.91;52.58
31299;BME280;17927;52.350;13.402;2024-03-06T07:16:14;101951.81;;;5.94;52.80
31299;BME280;17927;52.350;13.402;2024-03-06T07:18:40;101954.50;;;5.94;52.88
31299;BME280;17927;52.350;13.402;2024-03-06T07:21:05;101955.28;;;5.96;52.86
31299;BME280;17927;52.350;13.402;2024-03-06T07:23:30;101964.97;;;5.99;53.04
31299;BME280;17927;52.350;13.402;2024-03-06T07:25:58;101962.16;;;6.02;53.26
31299;BME280;17927;52.350;13.402;2024-03-06T07:28:24;101966.41;;;6.06;53.08
31299;BME280;17927;52.350;13.402;2024-03-06T07:30:51;101963.63;;;6.07;53.37
31299;BME280;17927;52.350;13.402;2024-03-06T07:33:16;101965.19;;;6.12;53.22
31299;BME280;17927;52.350;13.402;2024-03-06T07:35:41;101970.22;;;6.18;53.60
31299;BME280;17927;52.350;13.402;2024-03-06T07:38:06;101966.41;;;6.22;53.30
31299;BME280;17927;52.350;13.402;2024-03-06T07:40:32;101974.13;;;6.28;53.46
31299;BME280;17927;52.350;13.402;2024-03-06T07:42:57;101972.03;;;6.33;53.28
31299;BME280;17927;52.350;13.402;2024-03-06T07:45:23;101977.25;;;6.36;53.57
31299;BME280;17927;52.350;13.402;2024-03-06T07:47:48;101977.19;;;6.38;53.30
31299;BME280;17927;52.350;13.402;2024-03-06T07:50:13;101985.97;;;6.40;53.61
31299;BME280;17927;52.350;13.402;2024-03-06T07:52:43;101978.66;;;6.44;53.78
31299;BME280;17927;52.350;13.402;2024-03-06T07:55:10;101979.25;;;6.49;53.83
31299;BME280;17927;52.350;13.402;2024-03-06T07:57:35;101995.88;;;6.55;54.03
31299;BME280;17927;52.350;13.402;2024-03-06T08:00:01;101992.84;;;6.62;54.02
31299;BME280;17927;52.350;13.402;2024-03-06T08:02:32;101990.78;;;6.67;54.10
31299;BME280;17927;52.350;13.402;2024-03-06T08:04:58;101997.50;;;6.74;54.15
31299;BME280;17927;52.350;13.402;2024-03-06T08:07:23;101991.69;;;6.82;54.20
31299;BME280;17927;52.350;13.402;2024-03-06T08:09:48;101995.00;;;6.87;54.25
31299;BME280;17927;52.350;13.402;2024-03-06T08:12:13;101997.31;;;6.93;54.41
31299;BME280;17927;52.350;13.402;2024-03-06T08:14:39;101995.25;;;6.98;54.34
31299;BME280;17927;52.350;13.402;2024-03-06T08:17:04;102005.53;;;7.06;54.45
31299;BME280;17927;52.350;13.402;2024-03-06T08:19:29;102002.50;;;7.12;54.14
31299;BME280;17927;52.350;13.402;2024-03-06T08:21:54;102015.38;;;7.22;54.51
31299;BME280;17927;52.350;13.402;2024-03-06T08:24:20;102013.97;;;7.30;54.47
31299;BME280;17927;52.350;13.402;2024-03-06T08:26:45;102019.50;;;7.43;54.68
31299;BME280;17927;52.350;13.402;2024-03-06T08:29:10;102010.97;;;7.51;54.43
31299;BME280;17927;52.350;13.402;2024-03-06T08:31:35;102020.50;;;7.57;54.37
31299;BME280;17927;52.350;13.402;2024-03-06T08:34:01;102022.72;;;7.65;54.34
31299;BME280;17927;52.350;13.402;2024-03-06T08:36:26;102016.00;;;7.72;54.56
31299;BME280;17927;52.350;13.402;2024-03-06T08:38:51;102025.44;;;7.79;54.18
31299;BME280;17927;52.350;13.402;2024-03-06T08:41:16;102032.16;;;7.86;54.35
31299;BME280;17927;52.350;13.402;2024-03-06T08:43:42;102026.41;;;7.92;54.39
31299;BME280;17927;52.350;13.402;2024-03-06T08:46:07;102037.00;;;7.96;54.11
31299;BME280;17927;52.350;13.402;2024-03-06T08:48:32;102037.84;;;7.96;53.73
31299;BME280;17927;52.350;13.402;2024-03-06T08:50:58;102031.63;;;7.96;54.20
31299;BME280;17927;52.350;13.402;2024-03-06T08:53:23;102041.41;;;7.97;53.68
31299;BME280;17927;52.350;13.402;2024-03-06T08:55:48;102036.81;;;7.99;53.68
31299;BME280;17927;52.350;13.402;2024-03-06T08:58:14;102034.78;;;8.02;54.06
31299;BME280;17927;52.350;13.402;2024-03-06T09:00:39;102036.91;;;8.12;54.03
31299;BME280;17927;52.350;13.402;2024-03-06T09:03:05;102046.81;;;8.26;54.10
31299;BME280;17927;52.350;13.402;2024-03-06T09:05:30;102046.03;;;8.38;54.12
31299;BME280;17927;52.350;13.402;2024-03-06T09:07:56;102052.50;;;8.50;54.12
31299;BME280;17927;52.350;13.402;2024-03-06T09:10:22;102047.78;;;8.53;53.76
31299;BME280;17927;52.350;13.402;2024-03-06T09:12:48;102046.44;;;8.61;53.65
31299;BME280;17927;52.350;13.402;2024-03-06T09:15:14;102049.41;;;8.71;53.92
31299;BME280;17927;52.350;13.402;2024-03-06T09:17:40;102055.75;;;8.84;54.29
31299;BME280;17927;52.350;13.402;2024-03-06T09:20:05;102052.34;;;8.95;54.26
31299;BME280;17927;52.350;13.402;2024-03-06T09:22:40;102049.03;;;9.04;54.06
31299;BME280;17927;52.350;13.402;2024-03-06T09:25:06;102051.34;;;9.10;53.75
31299;BME280;17927;52.350;13.402;2024-03-06T09:27:31;102051.78;;;9.17;53.74
31299;BME280;17927;52.350;13.402;2024-03-06T09:29:57;102061.19;;;9.24;54.00
31299;BME280;17927;52.350;13.402;2024-03-06T09:32:22;102063.16;;;9.35;54.18
31299;BME280;17927;52.350;13.402;2024-03-06T09:34:47;102066.88;;;9.47;54.04
31299;BME280;17927;52.350;13.402;2024-03-06T09:37:13;102063.22;;;9.61;53.88
31299;BME280;17927;52.350;13.402;2024-03-06T09:39:39;102060.69;;;9.72;54.02
31299;BME280;17927;52.350;13.402;2024-03-06T09:42:04;102058.94;;;9.84;53.76
31299;BME280;17927;52.350;13.402;2024-03-06T09:44:29;102060.78;;;9.97;53.89
31299;BME280;17927;52.350;13.402;2024-03-06T09:46:59;102062.66;;;10.09;53.70
31299;BME280;17927;52.350;13.402;2024-03-06T09:49:26;102055.41;;;10.10;53.77
31299;BME280;17927;52.350;13.402;2024-03-06T09:51:53;102059.72;;;10.25;53.93
31299;BME280;17927;52.350;13.402;2024-03-06T09:54:19;102054.84;;;10.43;53.53
31299;BME280;17927;52.350;13.402;2024-03-06T09:56:45;102061.22;;;10.55;53.32
31299;BME280;17927;52.350;13.402;2024-03-06T09:59:11;102069.31;;;10.68;53.26
31299;BME280;17927;52.350;13.402;2024-03-06T10:01:53;102070.38;;;10.78;53.07
31299;BME280;17927;52.350;13.402;2024-03-06T10:04:22;102077.06;;;10.86;52.57
31299;BME280;17927;52.350;13.402;2024-03-06T10:06:48;102076.50;;;10.93;52.58
31299;BME280;17927;52.350;13.402;2024-03-06T10:09:17;102077.75;;;11.01;52.01
31299;BME280;17927;52.350;13.402;2024-03-06T10:11:42;102081.63;;;11.09;52.08
31299;BME280;17927;52.350;13.402;2024-03-06T10:14:08;102072.09;;;11.17;51.75
31299;BME280;17927;52.350;13.402;2024-03-06T10:16:35;102075.53;;;11.19;51.21
31299;BME280;17927;52.350;13.402;2024-03-06T10:19:17;102079.31;;;11.16;51.19
31299;BME280;17927;52.350;13.402;2024-03-06T10:21:43;102080.41;;;11.14;50.94
31299;BME280;17927;52.350;13.402;2024-03-06T10:24:17;102078.81;;;11.11;50.71
31299;BME280;17927;52.350;13.402;2024-03-06T10:26:43;102080.03;;;11.07;50.39
31299;BME280;17927;52.350;13.402;2024-03-06T10:29:09;102073.00;;;11.04;50.57
31299;BME280;17927;52.350;13.402;2024-03-06T10:31:34;102077.44;;;11.05;50.52
31299;BME280;17927;52.350;13.402;2024-03-06T10:33:59;102072.03;;;11.05;50.47
31299;BME280;17927;52.350;13.402;2024-03-06T10:36:31;102066.63;;;11.05;49.95
31299;BME280;17927;52.350;13.402;2024-03-06T10:38:59;102066.72;;;11.04;50.23
31299;BME280;17927;52.350;13.402;2024-03-06T10:41:28;102070.81;;;11.09;50.54
31299;BME280;17927;52.350;13.402;2024-03-06T10:43:58;102070.59;;;11.12;50.46
31299;BME280;17927;52.350;13.402;2024-03-06T10:46:25;102065.56;;;11.19;50.45
31299;BME280;17927;52.350;13.402;2024-03-06T10:48:52;102068.69;;;11.26;50.40
31299;BME280;17927;52.350;13.402;2024-03-06T10:51:19;102062.47;;;11.37;50.61
31299;BME280;17927;52.350;13.402;2024-03-06T10:53:46;102061.53;;;11.49;50.44
31299;BME280;17927;52.350;13.402;2024-03-06T10:56:12;102064.03;;;11.64;50.41
31299;BME280;17927;52.350;13.402;2024-03-06T10:58:38;102058.78;;;11.73;49.91
31299;BME280;17927;52.350;13.402;2024-03-06T11:01:06;102058.69;;;11.86;50.24
31299;BME280;17927;52.350;13.402;2024-03-06T11:03:33;102055.25;;;11.96;49.73
31299;BME280;17927;52.350;13.402;2024-03-06T11:05:58;102060.22;;;12.02;49.70
31299;BME280;17927;52.350;13.402;2024-03-06T11:08:24;102059.72;;;12.08;49.34
31299;BME280;17927;52.350;13.402;2024-03-06T11:10:50;102055.69;;;12.14;49.31
31299;BME280;17927;52.350;13.402;2024-03-06T11:15:48;102062.72;;;12.28;49.03
31299;BME280;17927;52.350;13.402;2024-03-06T11:23:26;102047.69;;;12.46;48.46
31299;BME280;17927;52.350;13.402;2024-03-06T11:28:20;102052.00;;;12.60;48.04
31299;BME280;17927;52.350;13.402;2024-03-06T11:31:07;102051.63;;;12.65;48.03
31299;BME280;17927;52.350;13.402;2024-03-06T11:33:39;102050.66;;;12.66;47.64
31299;BME280;17927;52.350;13.402;2024-03-06T11:36:17;102050.50;;;12.68;47.33
31299;BME280;17927;52.350;13.402;2024-03-06T11:41:12;102046.22;;;12.65;47.12
31299;BME280;17927;52.350;13.402;2024-03-06T11:43:44;102047.19;;;12.64;46.72
31299;BME280;17927;52.350;13.402;2024-03-06T11:46:10;102043.50;;;12.65;46.92
31299;BME280;17927;52.350;13.402;2024-03-06T11:48:36;102041.25;;;12.70;47.28
31299;BME280;17927;52.350;13.402;2024-03-06T11:51:02;102043.09;;;12.81;47.64
31299;BME280;17927;52.350;13.402;2024-03-06T11:53:30;102037.28;;;12.97;47.65
31299;BME280;17927;52.350;13.402;2024-03-06T11:55:55;102038.69;;;13.13;47.86
31299;BME280;17927;52.350;13.402;2024-03-06T11:58:22;102041.56;;;13.32;47.79
31299;BME280;17927;52.350;13.402;2024-03-06T12:00:47;102037.31;;;13.51;47.55
31299;BME280;17927;52.350;13.402;2024-03-06T12:03:13;102040.72;;;13.64;47.38
31299;BME280;17927;52.350;13.402;2024-03-06T12:05:38;102042.41;;;13.77;47.35
31299;BME280;17927;52.350;13.402;2024-03-06T12:08:03;102033.59;;;13.84;46.79
31299;BME280;17927;52.350;13.402;2024-03-06T12:10:36;102033.28;;;13.88;45.87
31299;BME280;17927;52.350;13.402;2024-03-06T12:13:02;102026.00;;;13.88;45.87
31299;BME280;17927;52.350;13.402;2024-03-06T12:15:28;102034.34;;;13.96;46.12
31299;BME280;17927;52.350;13.402;2024-03-06T12:17:53;102028.56;;;14.11;46.41
31299;BME280;17927;52.350;13.402;2024-03-06T12:20:19;102035.34;;;14.26;46.26
31299;BME280;17927;52.350;13.402;2024-03-06T12:22:52;102044.56;;;14.35;45.38
31299;BME280;17927;52.350;13.402;2024-03-06T12:25:25;102037.84;;;14.39;44.79
31299;BME280;17927;52.350;13.402;2024-03-06T12:27:52;102036.69;;;14.42;44.89
31299;BME280;17927;52.350;13.402;2024-03-06T12:30:19;102034.72;;;14.44;44.70
31299;BME280;17927;52.350;13.402;2024-03-06T12:32:56;102036.31;;;14.46;44.52
31299;BME280;17927;52.350;13.402;2024-03-06T12:35:25;102035.44;;;14.46;44.44
31299;BME280;17927;52.350;13.402;2024-03-06T12:37:51;102028.44;;;14.43;44.48
31299;BME280;17927;52.350;13.402;2024-03-06T12:40:16;102029.00;;;14.47;44.84
31299;BME280;17927;52.350;13.402;2024-03-06T12:42:41;102031.63;;;14.58;45.34
31299;BME280;17927;52.350;13.402;2024-03-06T12:45:07;102029.25;;;14.75;45.75
31299;BME280;17927;52.350;13.402;2024-03-06T12:47:33;102033.59;;;14.97;46.16
31299;BME280;17927;52.350;13.402;2024-03-06T12:49:59;102025.91;;;15.22;46.15
31299;BME280;17927;52.350;13.402;2024-03-06T12:52:24;102020.75;;;15.48;45.69
31299;BME280;17927;52.350;13.402;2024-03-06T12:54:49;102019.97;;;15.76;45.35